sensor_id;sensor_type;location;lat;lon;timestamp;temperature;humidity
796;DHT22;381;48.770;9.188;2023-09-18T00:01:19;21.50;99.90
796;DHT22;381;48.770;9.188;2023-09-18T00:06:21;21.50;99.90
796;DHT22;381;48.770;9.188;2023-09-18T00:11:24;21.50;99.90
796;DHT22;381;48.770;9.188;2023-09-18T00:16:28;21.50;99.90
796;DHT22;381;48.770;9.188;2023-09-18T00:21:30;21.40;99.90
796;DHT22;381;48.770;9.188;2023-09-18T00:26:32;21.40;99.90
796;DHT22;381;48.770;9.188;2023-09-18T00:31:36;21.40;99.90
796;DHT22;381;48.770;9.188;2023-09-18T00:36:38;21.40;99.90
796;DHT22;381;48.770;9.188;2023-09-18T00:41:40;21.40;99.90
796;DHT22;381;48.770;9.188;2023-09-18T00:46:44;21.40;99.90
796;DHT22;381;48.770;9.188;2023-09-18T00:51:47;21.30;99.90
796;DHT22;381;48.770;9.188;2023-09-18T00:56:49;21.30;99.90
796;DHT22;381;48.770;9.188;2023-09-18T01:01:56;21.30;99.90
796;DHT22;381;48.770;9.188;2023-09-18T01:06:58;21.40;99.90
796;DHT22;381;48.770;9.188;2023-09-18T01:12:08;21.50;99.90
796;DHT22;381;48.770;9.188;2023-09-18T01:17:14;21.50;99.90
796;DHT22;381;48.770;9.188;2023-09-18T01:22:18;21.50;99.90
796;DHT22;381;48.770;9.188;2023-09-18T01:27:21;21.60;99.90
796;DHT22;381;48.770;9.188;2023-09-18T01:32:26;21.70;99.90
796;DHT22;381;48.770;9.188;2023-09-18T01:37:31;21.70;99.90
796;DHT22;381;48.770;9.188;2023-09-18T01:42:36;21.80;99.90
796;DHT22;381;48.770;9.188;2023-09-18T01:47:38;21.90;99.90
796;DHT22;381;48.770;9.188;2023-09-18T01:52:40;22.10;99.90
796;DHT22;381;48.770;9.188;2023-09-18T01:57:44;22.30;99.90
796;DHT22;381;48.770;9.188;2023-09-18T02:02:46;22.50;99.90
796;DHT22;381;48.770;9.188;2023-09-18T02:07:49;22.60;99.60
796;DHT22;381;48.770;9.188;2023-09-18T02:12:53;22.60;99.90
796;DHT22;381;48.770;9.188;2023-09-18T02:17:55;22.10;99.90
796;DHT22;381;48.770;9.188;2023-09-18T02:22:57;21.60;99.90
796;DHT22;381;48.770;9.188;2023-09-18T02:28:00;21.20;99.90
796;DHT22;381;48.770;9.188;2023-09-18T02:33:03;20.90;99.90
796;DHT22;381;48.770;9.188;2023-09-18T02:38:05;20.70;99.90
796;DHT22;381;48.770;9.188;2023-09-18T02:43:09;20.50;99.90
796;DHT22;381;48.770;9.188;2023-09-18T02:48:11;20.40;99.90
796;DHT22;381;48.770;9.188;2023-09-18T02:53:17;20.30;99.90
796;DHT22;381;48.770;9.188;2023-09-18T02:58:21;20.20;99.90
796;DHT22;381;48.770;9.188;2023-09-18T03:03:26;20.20;99.90
796;DHT22;381;48.770;9.188;2023-09-18T03:08:28;20.20;99.90
796;DHT22;381;48.770;9.188;2023-09-18T03:13:33;20.30;99.90
796;DHT22;381;48.770;9.188;2023-09-18T03:18:36;20.40;99.90
796;DHT22;381;48.770;9.188;2023-09-18T03:23:38;20.50;99.90
796;DHT22;381;48.770;9.188;2023-09-18T03:28:41;20.50;99.90
796;DHT22;381;48.770;9.188;2023-09-18T03:33:44;20.50;99.90
796;DHT22;381;48.770;9.188;2023-09-18T03:38:47;20.60;99.90
796;DHT22;381;48.770;9.188;2023-09-18T03:43:51;20.60;99.90
796;DHT22;381;48.770;9.188;2023-09-18T03:48:54;20.60;99.90
796;DHT22;381;48.770;9.188;2023-09-18T03:53:58;20.70;99.90
796;DHT22;381;48.770;9.188;2023-09-18T03:59:02;20.70;99.90
796;DHT22;381;48.770;9.188;2023-09-18T04:04:05;20.70;99.90
796;DHT22;381;48.770;9.188;2023-09-18T04:09:08;20.80;99.90
796;DHT22;381;48.770;9.188;2023-09-18T04:14:12;20.80;99.90
796;DHT22;381;48.770;9.188;2023-09-18T04:19:14;20.90;99.90
796;DHT22;381;48.770;9.188;2023-09-18T04:24:16;21.00;99.90
796;DHT22;381;48.770;9.188;2023-09-18T04:29:20;21.10;99.90
796;DHT22;381;48.770;9.188;2023-09-18T04:34:24;21.10;99.90
796;DHT22;381;48.770;9.188;2023-09-18T04:39:26;21.10;99.90
796;DHT22;381;48.770;9.188;2023-09-18T04:44:32;21.20;99.90
796;DHT22;381;48.770;9.188;2023-09-18T04:49:34;21.20;99.90
796;DHT22;381;48.770;9.188;2023-09-18T04:54:36;21.20;99.90
796;DHT22;381;48.770;9.188;2023-09-18T04:59:40;21.20;99.90
796;DHT22;381;48.770;9.188;2023-09-18T05:04:42;21.20;99.90
796;DHT22;381;48.770;9.188;2023-09-18T05:09:44;21.10;99.90
796;DHT22;381;48.770;9.188;2023-09-18T05:14:48;21.10;99.90
796;DHT22;381;48.770;9.188;2023-09-18T05:19:51;21.10;99.90
796;DHT22;381;48.770;9.188;2023-09-18T05:24:54;21.10;99.90
796;DHT22;381;48.770;9.188;2023-09-18T05:29:57;21.20;99.90
796;DHT22;381;48.770;9.188;2023-09-18T05:34:59;21.20;99.90
796;DHT22;381;48.770;9.188;2023-09-18T05:40:07;21.30;99.90
796;DHT22;381;48.770;9.188;2023-09-18T05:45:12;21.20;99.90
796;DHT22;381;48.770;9.188;2023-09-18T05:50:14;21.20;99.90
796;DHT22;381;48.770;9.188;2023-09-18T05:55:17;21.20;99.90
796;DHT22;381;48.770;9.188;2023-09-18T06:00:21;21.20;99.90
796;DHT22;381;48.770;9.188;2023-09-18T06:05:23;21.20;99.90
796;DHT22;381;48.770;9.188;2023-09-18T06:10:25;21.30;99.90
796;DHT22;381;48.770;9.188;2023-09-18T06:15:29;21.40;99.90
796;DHT22;381;48.770;9.188;2023-09-18T06:20:31;21.40;99.90
796;DHT22;381;48.770;9.188;2023-09-18T06:25:34;21.40;99.90
796;DHT22;381;48.770;9.188;2023-09-18T06:30:39;21.40;99.90
796;DHT22;381;48.770;9.188;2023-09-18T06:35:42;21.40;99.90
796;DHT22;381;48.770;9.188;2023-09-18T06:40:44;21.40;99.90
796;DHT22;381;48.770;9.188;2023-09-18T06:45:48;21.30;99.90
796;DHT22;381;48.770;9.188;2023-09-18T06:50:50;21.20;99.90
796;DHT22;381;48.770;9.188;2023-09-18T06:55:52;21.00;99.90
796;DHT22;381;48.770;9.188;2023-09-18T07:00:55;20.90;99.90
796;DHT22;381;48.770;9.188;2023-09-18T07:05:59;20.80;99.90
796;DHT22;381;48.770;9.188;2023-09-18T07:11:01;20.70;99.90
796;DHT22;381;48.770;9.188;2023-09-18T07:16:06;20.70;99.90
796;DHT22;381;48.770;9.188;2023-09-18T07:21:08;20.70;99.90
796;DHT22;381;48.770;9.188;2023-09-18T07:26:10;20.90;99.90
796;DHT22;381;48.770;9.188;2023-09-18T07:31:13;21.00;99.90
796;DHT22;381;48.770;9.188;2023-09-18T07:36:16;21.20;99.90
796;DHT22;381;48.770;9.188;2023-09-18T07:41:18;21.30;99.90
796;DHT22;381;48.770;9.188;2023-09-18T07:46:23;21.50;99.90
796;DHT22;381;48.770;9.188;2023-09-18T07:51:25;21.60;99.90
796;DHT22;381;48.770;9.188;2023-09-18T07:56:27;21.70;99.90
796;DHT22;381;48.770;9.188;2023-09-18T08:01:33;21.80;99.90
796;DHT22;381;48.770;9.188;2023-09-18T08:06:35;22.00;99.90
796;DHT22;381;48.770;9.188;2023-09-18T08:11:38;22.20;99.90
796;DHT22;381;48.770;9.188;2023-09-18T08:16:44;22.30;99.90
796;DHT22;381;48.770;9.188;2023-09-18T08:21:46;22.40;99.90
796;DHT22;381;48.770;9.188;2023-09-18T08:26:49;22.30;99.90
796;DHT22;381;48.770;9.188;2023-09-18T08:31:52;22.30;99.90
796;DHT22;381;48.770;9.188;2023-09-18T08:36:54;22.20;99.90
796;DHT22;381;48.770;9.188;2023-09-18T08:41:59;22.10;99.90
796;DHT22;381;48.770;9.188;2023-09-18T08:47:06;22.00;99.90
796;DHT22;381;48.770;9.188;2023-09-18T08:52:11;21.80;99.90
796;DHT22;381;48.770;9.188;2023-09-18T08:57:13;21.60;99.90
796;DHT22;381;48.770;9.188;2023-09-18T09:02:16;21.60;99.90
796;DHT22;381;48.770;9.188;2023-09-18T09:07:19;21.40;99.90
796;DHT22;381;48.770;9.188;2023-09-18T09:12:48;21.10;99.90
796;DHT22;381;48.770;9.188;2023-09-18T09:18:02;20.80;99.90
796;DHT22;381;48.770;9.188;2023-09-18T09:23:06;20.60;99.90
796;DHT22;381;48.770;9.188;2023-09-18T09:28:08;20.50;99.90
796;DHT22;381;48.770;9.188;2023-09-18T09:33:13;20.50;99.90
796;DHT22;381;48.770;9.188;2023-09-18T09:38:15;20.30;99.90
796;DHT22;381;48.770;9.188;2023-09-18T09:43:17;20.30;99.90
796;DHT22;381;48.770;9.188;2023-09-18T09:48:21;20.20;99.90
796;DHT22;381;48.770;9.188;2023-09-18T09:53:43;20.30;99.90
796;DHT22;381;48.770;9.188;2023-09-18T09:59:00;20.30;99.90
796;DHT22;381;48.770;9.188;2023-09-18T10:04:09;20.40;99.90
796;DHT22;381;48.770;9.188;2023-09-18T10:09:13;20.50;99.90
796;DHT22;381;48.770;9.188;2023-09-18T10:14:18;20.80;99.90
796;DHT22;381;48.770;9.188;2023-09-18T10:19:27;21.10;99.90
796;DHT22;381;48.770;9.188;2023-09-18T10:24:35;21.30;99.90
796;DHT22;381;48.770;9.188;2023-09-18T10:29:40;21.40;99.90
796;DHT22;381;48.770;9.188;2023-09-18T10:34:47;21.50;99.90
796;DHT22;381;48.770;9.188;2023-09-18T10:39:51;21.50;99.90
796;DHT22;381;48.770;9.188;2023-09-18T10:44:55;21.40;99.90
796;DHT22;381;48.770;9.188;2023-09-18T10:49:59;21.30;99.90
796;DHT22;381;48.770;9.188;2023-09-18T10:55:02;21.20;99.90
796;DHT22;381;48.770;9.188;2023-09-18T11:00:07;21.00;99.90
796;DHT22;381;48.770;9.188;2023-09-18T11:05:28;21.00;99.90
796;DHT22;381;48.770;9.188;2023-09-18T11:10:31;21.00;99.90
796;DHT22;381;48.770;9.188;2023-09-18T11:15:33;21.00;99.90
796;DHT22;381;48.770;9.188;2023-09-18T11:20:39;21.00;99.90
796;DHT22;381;48.770;9.188;2023-09-18T11:25:41;21.10;99.90
796;DHT22;381;48.770;9.188;2023-09-18T11:30:50;21.10;99.90
796;DHT22;381;48.770;9.188;2023-09-18T11:36:03;21.20;99.90
796;DHT22;381;48.770;9.188;2023-09-18T11:41:23;21.20;99.90
796;DHT22;381;48.770;9.188;2023-09-18T11:46:27;21.30;99.90
796;DHT22;381;48.770;9.188;2023-09-18T11:51:32;21.40;99.90
796;DHT22;381;48.770;9.188;2023-09-18T11:56:36;21.50;99.90
796;DHT22;381;48.770;9.188;2023-09-18T12:01:41;21.60;99.90
796;DHT22;381;48.770;9.188;2023-09-18T12:06:48;21.70;99.90
796;DHT22;381;48.770;9.188;2023-09-18T12:11:51;21.80;99.90
796;DHT22;381;48.770;9.188;2023-09-18T12:16:54;21.90;99.90
796;DHT22;381;48.770;9.188;2023-09-18T12:21:59;22.00;99.90
796;DHT22;381;48.770;9.188;2023-09-18T12:27:03;22.00;99.90
796;DHT22;381;48.770;9.188;2023-09-18T12:32:09;22.10;99.90
796;DHT22;381;48.770;9.188;2023-09-18T12:37:15;22.10;99.90
796;DHT22;381;48.770;9.188;2023-09-18T12:42:18;22.00;99.90
796;DHT22;381;48.770;9.188;2023-09-18T12:47:20;22.10;99.90
796;DHT22;381;48.770;9.188;2023-09-18T12:52:24;22.30;99.90
796;DHT22;381;48.770;9.188;2023-09-18T12:57:26;22.40;99.90
796;DHT22;381;48.770;9.188;2023-09-18T13:02:29;22.60;99.90
796;DHT22;381;48.770;9.188;2023-09-18T13:07:43;22.70;99.90
796;DHT22;381;48.770;9.188;2023-09-18T13:12:47;23.00;99.90
796;DHT22;381;48.770;9.188;2023-09-18T13:17:50;23.10;99.90
796;DHT22;381;48.770;9.188;2023-09-18T13:22:55;23.10;99.90
796;DHT22;381;48.770;9.188;2023-09-18T13:27:58;23.10;99.90
796;DHT22;381;48.770;9.188;2023-09-18T13:33:02;23.10;99.90
796;DHT22;381;48.770;9.188;2023-09-18T13:38:08;23.10;99.90
796;DHT22;381;48.770;9.188;2023-09-18T13:43:12;23.10;99.90
796;DHT22;381;48.770;9.188;2023-09-18T13:48:15;23.20;99.90
796;DHT22;381;48.770;9.188;2023-09-18T13:53:19;23.20;99.90
796;DHT22;381;48.770;9.188;2023-09-18T13:58:21;23.10;99.90
796;DHT22;381;48.770;9.188;2023-09-18T14:03:24;23.00;99.90
796;DHT22;381;48.770;9.188;2023-09-18T14:08:27;23.00;99.90
796;DHT22;381;48.770;9.188;2023-09-18T14:13:30;23.00;99.90
796;DHT22;381;48.770;9.188;2023-09-18T14:18:32;23.10;99.90
796;DHT22;381;48.770;9.188;2023-09-18T14:23:35;23.10;99.90
796;DHT22;381;48.770;9.188;2023-09-18T14:28:38;23.10;99.90
796;DHT22;381;48.770;9.188;2023-09-18T14:33:40;23.10;99.90
796;DHT22;381;48.770;9.188;2023-09-18T14:38:43;23.20;99.90
796;DHT22;381;48.770;9.188;2023-09-18T14:43:46;23.20;99.90
796;DHT22;381;48.770;9.188;2023-09-18T14:48:48;23.20;99.90
796;DHT22;381;48.770;9.188;2023-09-18T14:53:51;23.20;99.90
796;DHT22;381;48.770;9.188;2023-09-18T14:58:54;23.20;99.90
796;DHT22;381;48.770;9.188;2023-09-18T15:03:57;23.20;99.90
796;DHT22;381;48.770;9.188;2023-09-18T15:09:00;23.10;99.90
796;DHT22;381;48.770;9.188;2023-09-18T15:14:04;23.00;99.90
796;DHT22;381;48.770;9.188;2023-09-18T15:19:06;22.90;99.90
796;DHT22;381;48.770;9.188;2023-09-18T15:24:10;22.80;99.90
796;DHT22;381;48.770;9.188;2023-09-18T15:29:13;22.70;99.90
796;DHT22;381;48.770;9.188;2023-09-18T15:34:17;22.70;99.90
796;DHT22;381;48.770;9.188;2023-09-18T15:39:20;22.60;99.90
796;DHT22;381;48.770;9.188;2023-09-18T15:44:22;22.70;99.90
796;DHT22;381;48.770;9.188;2023-09-18T15:49:24;22.60;99.90
796;DHT22;381;48.770;9.188;2023-09-18T15:54:29;22.70;99.90
796;DHT22;381;48.770;9.188;2023-09-18T15:59:31;22.60;99.90
796;DHT22;381;48.770;9.188;2023-09-18T16:04:33;22.60;99.90
796;DHT22;381;48.770;9.188;2023-09-18T16:09:38;22.60;99.90
796;DHT22;381;48.770;9.188;2023-09-18T16:14:40;22.50;99.90
796;DHT22;381;48.770;9.188;2023-09-18T16:19:42;22.50;99.90
796;DHT22;381;48.770;9.188;2023-09-18T16:24:47;22.50;99.90
796;DHT22;381;48.770;9.188;2023-09-18T16:29:49;22.50;99.90
796;DHT22;381;48.770;9.188;2023-09-18T16:34:51;22.40;99.90
796;DHT22;381;48.770;9.188;2023-09-18T16:39:55;22.40;99.90
796;DHT22;381;48.770;9.188;2023-09-18T16:44:57;22.30;99.90
796;DHT22;381;48.770;9.188;2023-09-18T16:50:00;22.20;99.90
796;DHT22;381;48.770;9.188;2023-09-18T16:55:07;22.20;99.90
796;DHT22;381;48.770;9.188;2023-09-18T17:00:10;22.10;99.90
796;DHT22;381;48.770;9.188;2023-09-18T17:05:12;22.00;99.90
796;DHT22;381;48.770;9.188;2023-09-18T17:10:16;22.00;99.90
796;DHT22;381;48.770;9.188;2023-09-18T17:15:18;21.90;99.90
796;DHT22;381;48.770;9.188;2023-09-18T17:20:21;21.80;99.90
796;DHT22;381;48.770;9.188;2023-09-18T17:25:25;21.80;99.90
796;DHT22;381;48.770;9.188;2023-09-18T17:30:27;21.80;99.90
796;DHT22;381;48.770;9.188;2023-09-18T17:35:29;21.70;99.90
796;DHT22;381;48.770;9.188;2023-09-18T17:40:34;21.70;99.90
796;DHT22;381;48.770;9.188;2023-09-18T17:45:37;21.60;99.90
796;DHT22;381;48.770;9.188;2023-09-18T17:50:39;21.60;99.90
796;DHT22;381;48.770;9.188;2023-09-18T17:55:43;21.50;99.90
796;DHT22;381;48.770;9.188;2023-09-18T18:00:45;21.50;99.90
796;DHT22;381;48.770;9.188;2023-09-18T18:05:49;21.50;99.90
796;DHT22;381;48.770;9.188;2023-09-18T18:10:53;21.40;99.90
796;DHT22;381;48.770;9.188;2023-09-18T18:15:55;21.40;99.90
796;DHT22;381;48.770;9.188;2023-09-18T18:20:57;21.40;99.90
796;DHT22;381;48.770;9.188;2023-09-18T18:26:02;21.40;99.90
796;DHT22;381;48.770;9.188;2023-09-18T18:31:05;21.40;99.90
796;DHT22;381;48.770;9.188;2023-09-18T18:36:07;21.30;99.90
796;DHT22;381;48.770;9.188;2023-09-18T18:41:11;21.30;99.90
796;DHT22;381;48.770;9.188;2023-09-18T18:46:13;21.30;99.90
796;DHT22;381;48.770;9.188;2023-09-18T18:51:16;21.30;99.90
796;DHT22;381;48.770;9.188;2023-09-18T18:56:19;21.30;99.90
796;DHT22;381;48.770;9.188;2023-09-18T19:01:21;21.30;99.90
796;DHT22;381;48.770;9.188;2023-09-18T19:06:24;21.40;99.90
796;DHT22;381;48.770;9.188;2023-09-18T19:11:28;21.40;99.90
796;DHT22;381;48.770;9.188;2023-09-18T19:16:30;21.40;99.90
796;DHT22;381;48.770;9.188;2023-09-18T19:21:32;21.40;99.90
796;DHT22;381;48.770;9.188;2023-09-18T19:26:37;21.40;99.90
796;DHT22;381;48.770;9.188;2023-09-18T19:31:39;21.30;99.90
796;DHT22;381;48.770;9.188;2023-09-18T19:36:47;20.90;99.90
796;DHT22;381;48.770;9.188;2023-09-18T19:41:56;20.60;99.90
796;DHT22;381;48.770;9.188;2023-09-18T19:47:08;20.30;99.90
796;DHT22;381;48.770;9.188;2023-09-18T19:52:10;20.20;99.90
796;DHT22;381;48.770;9.188;2023-09-18T19:57:15;20.20;99.90
796;DHT22;381;48.770;9.188;2023-09-18T20:02:18;20.10;99.90
796;DHT22;381;48.770;9.188;2023-09-18T20:07:20;20.20;99.90
796;DHT22;381;48.770;9.188;2023-09-18T20:12:23;20.20;99.90
796;DHT22;381;48.770;9.188;2023-09-18T20:17:25;20.10;99.90
796;DHT22;381;48.770;9.188;2023-09-18T20:22:28;19.90;99.90
796;DHT22;381;48.770;9.188;2023-09-18T20:27:33;19.70;99.90
796;DHT22;381;48.770;9.188;2023-09-18T20:32:39;19.40;99.90
796;DHT22;381;48.770;9.188;2023-09-18T20:37:42;19.30;99.90
796;DHT22;381;48.770;9.188;2023-09-18T20:42:46;19.30;99.90
796;DHT22;381;48.770;9.188;2023-09-18T20:47:48;19.30;99.90
796;DHT22;381;48.770;9.188;2023-09-18T20:52:50;19.50;99.90
796;DHT22;381;48.770;9.188;2023-09-18T20:57:54;19.60;99.90
796;DHT22;381;48.770;9.188;2023-09-18T21:02:59;19.70;99.90
796;DHT22;381;48.770;9.188;2023-09-18T21:08:02;19.80;99.90
796;DHT22;381;48.770;9.188;2023-09-18T21:13:05;19.80;99.90
796;DHT22;381;48.770;9.188;2023-09-18T21:18:07;19.90;99.90
796;DHT22;381;48.770;9.188;2023-09-18T21:23:10;19.80;99.90
796;DHT22;381;48.770;9.188;2023-09-18T21:28:13;19.80;99.90
796;DHT22;381;48.770;9.188;2023-09-18T21:33:16;19.80;99.90
796;DHT22;381;48.770;9.188;2023-09-18T21:38:18;19.80;99.90
796;DHT22;381;48.770;9.188;2023-09-18T21:43:28;19.80;99.90
796;DHT22;381;48.770;9.188;2023-09-18T21:48:30;19.80;99.90
796;DHT22;381;48.770;9.188;2023-09-18T21:53:33;19.80;99.90
796;DHT22;381;48.770;9.188;2023-09-18T21:58:36;19.80;99.90
796;DHT22;381;48.770;9.188;2023-09-18T22:03:39;19.80;99.90
796;DHT22;381;48.770;9.188;2023-09-18T22:08:41;19.80;99.90
796;DHT22;381;48.770;9.188;2023-09-18T22:13:45;19.80;99.90
796;DHT22;381;48.770;9.188;2023-09-18T22:18:47;19.80;99.90
796;DHT22;381;48.770;9.188;2023-09-18T22:23:49;19.80;99.90
796;DHT22;381;48.770;9.188;2023-09-18T22:28:54;19.80;99.90
796;DHT22;381;48.770;9.188;2023-09-18T22:33:59;19.70;99.90
796;DHT22;381;48.770;9.188;2023-09-18T22:55:43;19.90;99.90
796;DHT22;381;48.770;9.188;2023-09-18T23:00:45;19.80;99.90
796;DHT22;381;48.770;9.188;2023-09-18T23:05:49;19.80;99.90
796;DHT22;381;48.770;9.188;2023-09-18T23:10:54;19.90;99.90
796;DHT22;381;48.770;9.188;2023-09-18T23:15:56;20.00;99.90
796;DHT22;381;48.770;9.188;2023-09-18T23:20:59;20.00;99.90
796;DHT22;381;48.770;9.188;2023-09-18T23:26:03;19.90;99.90
796;DHT22;381;48.770;9.188;2023-09-18T23:31:06;20.00;99.90
796;DHT22;381;48.770;9.188;2023-09-18T23:36:08;20.00;99.90
796;DHT22;381;48.770;9.188;2023-09-18T23:41:14;20.00;99.90
796;DHT22;381;48.770;9.188;2023-09-18T23:46:16;20.00;99.90
796;DHT22;381;48.770;9.188;2023-09-18T23:51:21;20.00;99.90
796;DHT22;381;48.770;9.188;2023-09-18T23:56:25;20.00;99.90
